sensor_id;sensor_type;location;lat;lon;timestamp;pressure;altitude;pressure_sealevel;temperature;humidity
4326;BME280;58429;49.826;10.880;2023-05-09T00:00:03;99061;;;14.74;64.07
4326;BME280;58429;49.826;10.880;2023-05-09T00:01:04;99063;;;14.69;63.96
4326;BME280;58429;49.826;10.880;2023-05-09T00:02:02;99060;;;14.73;63.97
4326;BME280;58429;49.826;10.880;2023-05-09T00:03:02;99062;;;14.7;63.97
4326;BME280;58429;49.826;10.880;2023-05-09T00:04:03;99064;;;14.68;63.82
4326;BME280;58429;49.826;10.880;2023-05-09T00:05:03;99071;;;14.68;63.87
4326;BME280;58429;49.826;10.880;2023-05-09T00:06:03;99071;;;14.63;63.91
4326;BME280;58429;49.826;10.880;2023-05-09T00:07:02;99069;;;14.61;63.88
4326;BME280;58429;49.826;10.880;2023-05-09T00:08:03;99060;;;14.6;64.04
4326;BME280;58429;49.826;10.880;2023-05-09T00:09:03;99065;;;14.63;64.12
4326;BME280;58429;49.826;10.880;2023-05-09T00:10:03;99060;;;14.6;64.29
4326;BME280;58429;49.826;10.880;2023-05-09T00:11:03;99065;;;14.61;64.39
4326;BME280;58429;49.826;10.880;2023-05-09T00:12:03;99060;;;14.61;64.58
4326;BME280;58429;49.826;10.880;2023-05-09T00:13:02;99062;;;14.57;64.48
4326;BME280;58429;49.826;10.880;2023-05-09T00:14:02;99057;;;14.57;64.57
4326;BME280;58429;49.826;10.880;2023-05-09T00:15:03;99060;;;14.59;64.72
4326;BME280;58429;49.826;10.880;2023-05-09T00:16:03;99060;;;14.59;64.7
4326;BME280;58429;49.826;10.880;2023-05-09T00:17:03;99056;;;14.57;64.23
4326;BME280;58429;49.826;10.880;2023-05-09T00:18:03;99055;;;14.52;63.94
4326;BME280;58429;49.826;10.880;2023-05-09T00:19:02;99053;;;14.55;63.35
4326;BME280;58429;49.826;10.880;2023-05-09T00:20:03;99057;;;14.55;62.89
4326;BME280;58429;49.826;10.880;2023-05-09T00:21:03;99052;;;14.52;62.55
4326;BME280;58429;49.826;10.880;2023-05-09T00:22:02;99051;;;14.57;62.13
4326;BME280;58429;49.826;10.880;2023-05-09T00:23:03;99046;;;14.53;61.9
4326;BME280;58429;49.826;10.880;2023-05-09T00:24:03;99046;;;14.57;61.81
4326;BME280;58429;49.826;10.880;2023-05-09T00:25:03;99048;;;14.56;62.07
4326;BME280;58429;49.826;10.880;2023-05-09T00:26:03;99048;;;14.53;62.09
4326;BME280;58429;49.826;10.880;2023-05-09T00:27:02;99044;;;14.51;61.89
4326;BME280;58429;49.826;10.880;2023-05-09T00:28:03;99042;;;14.48;62
4326;BME280;58429;49.826;10.880;2023-05-09T00:29:02;99043;;;14.45;62
4326;BME280;58429;49.826;10.880;2023-05-09T00:30:03;99043;;;14.46;62.4
4326;BME280;58429;49.826;10.880;2023-05-09T00:31:03;99039;;;14.4;62.56
4326;BME280;58429;49.826;10.880;2023-05-09T00:32:03;99042;;;14.41;62.77
4326;BME280;58429;49.826;10.880;2023-05-09T00:33:03;99041;;;14.44;62.68
4326;BME280;58429;49.826;10.880;2023-05-09T00:34:02;99041;;;14.4;62.71
4326;BME280;58429;49.826;10.880;2023-05-09T00:35:03;99049;;;14.38;62.7
4326;BME280;58429;49.826;10.880;2023-05-09T00:36:03;99038;;;14.4;62.75
4326;BME280;58429;49.826;10.880;2023-05-09T00:37:02;99034;;;14.4;62.74
4326;BME280;58429;49.826;10.880;2023-05-09T00:38:02;99037;;;14.41;62.67
4326;BME280;58429;49.826;10.880;2023-05-09T00:39:02;99033;;;14.38;62.59
4326;BME280;58429;49.826;10.880;2023-05-09T00:40:03;99037;;;14.4;62.74
4326;BME280;58429;49.826;10.880;2023-05-09T00:41:03;99045;;;14.36;62.77
4326;BME280;58429;49.826;10.880;2023-05-09T00:42:03;99041;;;14.34;62.71
4326;BME280;58429;49.826;10.880;2023-05-09T00:43:02;99036;;;14.38;62.79
4326;BME280;58429;49.826;10.880;2023-05-09T00:44:03;99038;;;14.4;62.61
4326;BME280;58429;49.826;10.880;2023-05-09T00:45:03;99036;;;14.4;62.43
4326;BME280;58429;49.826;10.880;2023-05-09T00:46:03;99030;;;14.41;62.44
4326;BME280;58429;49.826;10.880;2023-05-09T00:47:03;99038;;;14.43;62.27
4326;BME280;58429;49.826;10.880;2023-05-09T00:48:03;99031;;;14.42;62.23
4326;BME280;58429;49.826;10.880;2023-05-09T00:49:03;99032;;;14.44;62.15
4326;BME280;58429;49.826;10.880;2023-05-09T00:50:03;99031;;;14.45;62.01
4326;BME280;58429;49.826;10.880;2023-05-09T00:51:03;99027;;;14.4;61.82
4326;BME280;58429;49.826;10.880;2023-05-09T00:52:03;99030;;;14.43;61.84
4326;BME280;58429;49.826;10.880;2023-05-09T00:53:03;99034;;;14.41;61.75
4326;BME280;58429;49.826;10.880;2023-05-09T00:54:03;99023;;;14.4;61.75
4326;BME280;58429;49.826;10.880;2023-05-09T00:55:03;99025;;;14.38;61.92
4326;BME280;58429;49.826;10.880;2023-05-09T00:56:03;99025;;;14.36;61.92
4326;BME280;58429;49.826;10.880;2023-05-09T00:57:03;99021;;;14.38;62.12
4326;BME280;58429;49.826;10.880;2023-05-09T00:58:03;99023;;;14.38;61.99
4326;BME280;58429;49.826;10.880;2023-05-09T00:59:03;99025;;;14.36;61.89
4326;BME280;58429;49.826;10.880;2023-05-09T01:00:03;99020;;;14.38;61.96
4326;BME280;58429;49.826;10.880;2023-05-09T01:01:03;99025;;;14.34;62.31
4326;BME280;58429;49.826;10.880;2023-05-09T01:02:03;99023;;;14.35;62.34
4326;BME280;58429;49.826;10.880;2023-05-09T01:03:03;99021;;;14.34;62.19
4326;BME280;58429;49.826;10.880;2023-05-09T01:04:03;99018;;;14.36;62.11
4326;BME280;58429;49.826;10.880;2023-05-09T01:05:03;99011;;;14.33;62.15
4326;BME280;58429;49.826;10.880;2023-05-09T01:06:04;99017;;;14.35;62.27
4326;BME280;58429;49.826;10.880;2023-05-09T01:07:04;99016;;;14.35;62.11
4326;BME280;58429;49.826;10.880;2023-05-09T01:08:08;99015;;;14.35;62.12
4326;BME280;58429;49.826;10.880;2023-05-09T01:09:08;99020;;;14.36;61.82
4326;BME280;58429;49.826;10.880;2023-05-09T01:10:05;99023;;;14.35;61.87
4326;BME280;58429;49.826;10.880;2023-05-09T01:11:05;99014;;;14.37;62.06
4326;BME280;58429;49.826;10.880;2023-05-09T01:12:06;99017;;;14.36;61.87
4326;BME280;58429;49.826;10.880;2023-05-09T01:13:03;99012;;;14.34;61.81
4326;BME280;58429;49.826;10.880;2023-05-09T01:14:04;99012;;;14.37;61.67
4326;BME280;58429;49.826;10.880;2023-05-09T01:15:05;99008;;;14.38;61.6
4326;BME280;58429;49.826;10.880;2023-05-09T01:16:05;99011;;;14.36;61.83
4326;BME280;58429;49.826;10.880;2023-05-09T01:17:04;99010;;;14.38;61.61
4326;BME280;58429;49.826;10.880;2023-05-09T01:18:04;99009;;;14.37;61.25
4326;BME280;58429;49.826;10.880;2023-05-09T01:19:06;99004;;;14.37;61.64
4326;BME280;58429;49.826;10.880;2023-05-09T01:20:06;99005;;;14.42;61.62
4326;BME280;58429;49.826;10.880;2023-05-09T01:21:04;99006;;;14.37;61.67
4326;BME280;58429;49.826;10.880;2023-05-09T01:22:03;99006;;;14.41;61.48
4326;BME280;58429;49.826;10.880;2023-05-09T01:23:08;99008;;;14.39;61.36
4326;BME280;58429;49.826;10.880;2023-05-09T01:24:12;99014;;;14.38;61.27
4326;BME280;58429;49.826;10.880;2023-05-09T01:25:05;99007;;;14.38;61.43
4326;BME280;58429;49.826;10.880;2023-05-09T01:26:03;99007;;;14.37;61.36
4326;BME280;58429;49.826;10.880;2023-05-09T01:27:14;99011;;;14.38;61.49
4326;BME280;58429;49.826;10.880;2023-05-09T01:28:06;99006;;;14.36;61.47
4326;BME280;58429;49.826;10.880;2023-05-09T01:29:26;99006;;;14.36;61.57
4326;BME280;58429;49.826;10.880;2023-05-09T01:30:03;99005;;;14.36;61.8
4326;BME280;58429;49.826;10.880;2023-05-09T01:31:03;99000;;;14.37;61.52
4326;BME280;58429;49.826;10.880;2023-05-09T01:32:03;99007;;;14.36;61.57
4326;BME280;58429;49.826;10.880;2023-05-09T01:33:05;98999;;;14.37;61.68
4326;BME280;58429;49.826;10.880;2023-05-09T01:34:03;99003;;;14.34;62.05
4326;BME280;58429;49.826;10.880;2023-05-09T01:35:03;98997;;;14.36;62.2
4326;BME280;58429;49.826;10.880;2023-05-09T01:36:04;98995;;;14.34;62.15
4326;BME280;58429;49.826;10.880;2023-05-09T01:37:03;98999;;;14.34;62.06
4326;BME280;58429;49.826;10.880;2023-05-09T01:38:06;99000;;;14.37;62.23
4326;BME280;58429;49.826;10.880;2023-05-09T01:39:03;98996;;;14.34;62.27
4326;BME280;58429;49.826;10.880;2023-05-09T01:40:03;98991;;;14.34;62.35
4326;BME280;58429;49.826;10.880;2023-05-09T01:41:03;98995;;;14.33;62.47
4326;BME280;58429;49.826;10.880;2023-05-09T01:42:03;98996;;;14.32;62.47
4326;BME280;58429;49.826;10.880;2023-05-09T01:43:04;98989;;;14.32;62.55
4326;BME280;58429;49.826;10.880;2023-05-09T01:44:03;98992;;;14.32;62.52
4326;BME280;58429;49.826;10.880;2023-05-09T01:45:03;98987;;;14.31;62.62
4326;BME280;58429;49.826;10.880;2023-05-09T01:46:03;98988;;;14.33;62.81
4326;BME280;58429;49.826;10.880;2023-05-09T01:47:03;98989;;;14.27;62.88
4326;BME280;58429;49.826;10.880;2023-05-09T01:48:03;98991;;;14.26;62.86
4326;BME280;58429;49.826;10.880;2023-05-09T01:49:03;98991;;;14.21;62.75
4326;BME280;58429;49.826;10.880;2023-05-09T01:50:03;98992;;;14.17;62.75
4326;BME280;58429;49.826;10.880;2023-05-09T01:51:03;98986;;;14.2;62.72
4326;BME280;58429;49.826;10.880;2023-05-09T01:52:03;98993;;;14.2;62.55
4326;BME280;58429;49.826;10.880;2023-05-09T01:53:03;98990;;;14.21;62.37
4326;BME280;58429;49.826;10.880;2023-05-09T01:54:03;98992;;;14.15;62.42
4326;BME280;58429;49.826;10.880;2023-05-09T01:55:03;98996;;;14.13;62.44
4326;BME280;58429;49.826;10.880;2023-05-09T01:56:03;98989;;;14.15;62.55
4326;BME280;58429;49.826;10.880;2023-05-09T01:57:03;98994;;;14.1;62.66
4326;BME280;58429;49.826;10.880;2023-05-09T01:58:03;98992;;;14.12;62.76
4326;BME280;58429;49.826;10.880;2023-05-09T01:59:03;98994;;;14.11;62.6
4326;BME280;58429;49.826;10.880;2023-05-09T02:00:03;98988;;;14.12;62.56
4326;BME280;58429;49.826;10.880;2023-05-09T02:01:03;98991;;;14.13;62.62
4326;BME280;58429;49.826;10.880;2023-05-09T02:02:03;98985;;;14.1;62.51
4326;BME280;58429;49.826;10.880;2023-05-09T02:03:03;98981;;;14.07;62.4
4326;BME280;58429;49.826;10.880;2023-05-09T02:04:03;98990;;;14.08;62.47
4326;BME280;58429;49.826;10.880;2023-05-09T02:05:03;98986;;;14.09;62.48
4326;BME280;58429;49.826;10.880;2023-05-09T02:06:03;98992;;;14.07;62.52
4326;BME280;58429;49.826;10.880;2023-05-09T02:07:03;98988;;;14.05;62.58
4326;BME280;58429;49.826;10.880;2023-05-09T02:08:03;98992;;;14.07;62.56
4326;BME280;58429;49.826;10.880;2023-05-09T02:09:03;98987;;;14.06;62.55
4326;BME280;58429;49.826;10.880;2023-05-09T02:10:03;98995;;;14.03;62.42
4326;BME280;58429;49.826;10.880;2023-05-09T02:11:03;98997;;;14.08;62.4
4326;BME280;58429;49.826;10.880;2023-05-09T02:12:03;98996;;;14.06;62.32
4326;BME280;58429;49.826;10.880;2023-05-09T02:13:03;98995;;;14.07;62.2
4326;BME280;58429;49.826;10.880;2023-05-09T02:14:03;98990;;;14.08;62.06
4326;BME280;58429;49.826;10.880;2023-05-09T02:15:03;98988;;;14.06;62.21
4326;BME280;58429;49.826;10.880;2023-05-09T02:16:03;98986;;;14.07;62.3
4326;BME280;58429;49.826;10.880;2023-05-09T02:17:03;98990;;;14.05;62.28
4326;BME280;58429;49.826;10.880;2023-05-09T02:18:03;98992;;;14.07;62.15
4326;BME280;58429;49.826;10.880;2023-05-09T02:19:03;98995;;;14.03;61.79
4326;BME280;58429;49.826;10.880;2023-05-09T02:20:03;98998;;;14.02;62.01
4326;BME280;58429;49.826;10.880;2023-05-09T02:21:03;98997;;;14.04;62.1
4326;BME280;58429;49.826;10.880;2023-05-09T02:22:03;98990;;;14.02;62.15
4326;BME280;58429;49.826;10.880;2023-05-09T02:23:03;98998;;;14.06;62.06
4326;BME280;58429;49.826;10.880;2023-05-09T02:24:03;98992;;;14;62.11
4326;BME280;58429;49.826;10.880;2023-05-09T02:25:03;98997;;;14;61.84
4326;BME280;58429;49.826;10.880;2023-05-09T02:26:03;98991;;;14;61.83
4326;BME280;58429;49.826;10.880;2023-05-09T02:27:03;98994;;;14.02;61.72
4326;BME280;58429;49.826;10.880;2023-05-09T02:28:03;98994;;;14;61.72
4326;BME280;58429;49.826;10.880;2023-05-09T02:29:03;98988;;;13.98;61.72
4326;BME280;58429;49.826;10.880;2023-05-09T02:30:03;98989;;;14.03;61.72
4326;BME280;58429;49.826;10.880;2023-05-09T02:31:03;98993;;;14.01;61.78
4326;BME280;58429;49.826;10.880;2023-05-09T02:32:03;98991;;;13.98;61.68
4326;BME280;58429;49.826;10.880;2023-05-09T02:33:04;98991;;;13.97;61.5
4326;BME280;58429;49.826;10.880;2023-05-09T02:34:03;98987;;;13.96;61.46
4326;BME280;58429;49.826;10.880;2023-05-09T02:35:03;98987;;;13.97;61.45
4326;BME280;58429;49.826;10.880;2023-05-09T02:36:03;98987;;;14;61.42
4326;BME280;58429;49.826;10.880;2023-05-09T02:37:03;98990;;;13.95;61.39
4326;BME280;58429;49.826;10.880;2023-05-09T02:38:03;98985;;;13.94;61.39
4326;BME280;58429;49.826;10.880;2023-05-09T02:39:03;98991;;;13.96;61.55
4326;BME280;58429;49.826;10.880;2023-05-09T02:40:04;98990;;;13.95;61.48
4326;BME280;58429;49.826;10.880;2023-05-09T02:41:03;98984;;;13.93;61.61
4326;BME280;58429;49.826;10.880;2023-05-09T02:42:05;98986;;;13.94;61.62
4326;BME280;58429;49.826;10.880;2023-05-09T02:43:03;98983;;;13.93;61.73
4326;BME280;58429;49.826;10.880;2023-05-09T02:44:03;98988;;;13.92;61.88
4326;BME280;58429;49.826;10.880;2023-05-09T02:45:03;98987;;;13.92;61.85
4326;BME280;58429;49.826;10.880;2023-05-09T02:46:03;98985;;;13.91;61.92
4326;BME280;58429;49.826;10.880;2023-05-09T02:47:03;98982;;;13.91;61.95
4326;BME280;58429;49.826;10.880;2023-05-09T02:48:03;98984;;;13.89;62.25
4326;BME280;58429;49.826;10.880;2023-05-09T02:49:03;98977;;;13.89;62.22
4326;BME280;58429;49.826;10.880;2023-05-09T02:50:03;98978;;;13.87;62.25
4326;BME280;58429;49.826;10.880;2023-05-09T02:51:03;98982;;;13.89;62.36
4326;BME280;58429;49.826;10.880;2023-05-09T02:52:03;98977;;;13.87;62.44
4326;BME280;58429;49.826;10.880;2023-05-09T02:53:03;98974;;;13.88;62.56
4326;BME280;58429;49.826;10.880;2023-05-09T02:54:03;98975;;;13.85;62.72
4326;BME280;58429;49.826;10.880;2023-05-09T02:55:03;98971;;;13.85;62.81
4326;BME280;58429;49.826;10.880;2023-05-09T02:56:03;98976;;;13.83;62.95
4326;BME280;58429;49.826;10.880;2023-05-09T02:57:03;98976;;;13.82;63.11
4326;BME280;58429;49.826;10.880;2023-05-09T02:58:03;98975;;;13.79;63.19
4326;BME280;58429;49.826;10.880;2023-05-09T02:59:03;98978;;;13.81;63.14
4326;BME280;58429;49.826;10.880;2023-05-09T03:00:03;98980;;;13.81;63.11
4326;BME280;58429;49.826;10.880;2023-05-09T03:01:03;98975;;;13.75;63.36
4326;BME280;58429;49.826;10.880;2023-05-09T03:02:03;98977;;;13.76;63.61
4326;BME280;58429;49.826;10.880;2023-05-09T03:03:03;98974;;;13.65;63.46
4326;BME280;58429;49.826;10.880;2023-05-09T03:04:03;98977;;;13.67;63.6
4326;BME280;58429;49.826;10.880;2023-05-09T03:05:03;98974;;;13.66;63.47
4326;BME280;58429;49.826;10.880;2023-05-09T03:06:03;98964;;;13.65;63.54
4326;BME280;58429;49.826;10.880;2023-05-09T03:07:03;98978;;;13.65;63.56
4326;BME280;58429;49.826;10.880;2023-05-09T03:08:03;98967;;;13.6;63.67
4326;BME280;58429;49.826;10.880;2023-05-09T03:09:03;98967;;;13.53;63.93
4326;BME280;58429;49.826;10.880;2023-05-09T03:10:03;98970;;;13.52;64.2
4326;BME280;58429;49.826;10.880;2023-05-09T03:11:03;98976;;;13.46;64.25
4326;BME280;58429;49.826;10.880;2023-05-09T03:12:04;98969;;;13.48;64.19
4326;BME280;58429;49.826;10.880;2023-05-09T03:13:03;98973;;;13.44;64.2
4326;BME280;58429;49.826;10.880;2023-05-09T03:14:03;98975;;;13.39;64.2
4326;BME280;58429;49.826;10.880;2023-05-09T03:15:03;98970;;;13.41;64.35
4326;BME280;58429;49.826;10.880;2023-05-09T03:16:03;98966;;;13.38;64.11
4326;BME280;58429;49.826;10.880;2023-05-09T03:17:03;98962;;;13.4;64.22
4326;BME280;58429;49.826;10.880;2023-05-09T03:18:03;98963;;;13.38;64.13
4326;BME280;58429;49.826;10.880;2023-05-09T03:19:03;98961;;;13.36;64.26
4326;BME280;58429;49.826;10.880;2023-05-09T03:20:03;98966;;;13.35;64.42
4326;BME280;58429;49.826;10.880;2023-05-09T03:21:03;98967;;;13.36;64.44
4326;BME280;58429;49.826;10.880;2023-05-09T03:22:03;98962;;;13.35;64.52
4326;BME280;58429;49.826;10.880;2023-05-09T03:23:03;98967;;;13.34;64.67
4326;BME280;58429;49.826;10.880;2023-05-09T03:24:03;98961;;;13.34;64.7
4326;BME280;58429;49.826;10.880;2023-05-09T03:25:03;98960;;;13.32;64.75
4326;BME280;58429;49.826;10.880;2023-05-09T03:26:03;98960;;;13.34;64.71
4326;BME280;58429;49.826;10.880;2023-05-09T03:27:03;98957;;;13.34;64.6
4326;BME280;58429;49.826;10.880;2023-05-09T03:28:03;98955;;;13.35;64.63
4326;BME280;58429;49.826;10.880;2023-05-09T03:29:03;98956;;;13.32;64.92
4326;BME280;58429;49.826;10.880;2023-05-09T03:30:03;98960;;;13.31;65.02
4326;BME280;58429;49.826;10.880;2023-05-09T03:31:03;98956;;;13.31;65.04
4326;BME280;58429;49.826;10.880;2023-05-09T03:32:03;98958;;;13.29;65.01
4326;BME280;58429;49.826;10.880;2023-05-09T03:33:03;98963;;;13.31;65.09
4326;BME280;58429;49.826;10.880;2023-05-09T03:34:03;98961;;;13.31;65.04
4326;BME280;58429;49.826;10.880;2023-05-09T03:35:03;98962;;;13.29;65.2
4326;BME280;58429;49.826;10.880;2023-05-09T03:36:03;98957;;;13.3;65.16
4326;BME280;58429;49.826;10.880;2023-05-09T03:37:03;98954;;;13.28;65.06
4326;BME280;58429;49.826;10.880;2023-05-09T03:38:03;98954;;;13.3;65.28
4326;BME280;58429;49.826;10.880;2023-05-09T03:39:03;98951;;;13.3;65.32
4326;BME280;58429;49.826;10.880;2023-05-09T03:40:03;98952;;;13.3;65.35
4326;BME280;58429;49.826;10.880;2023-05-09T03:41:03;98947;;;13.3;65.22
4326;BME280;58429;49.826;10.880;2023-05-09T03:42:03;98948;;;13.25;65.36
4326;BME280;58429;49.826;10.880;2023-05-09T03:43:03;98949;;;13.3;65.49
4326;BME280;58429;49.826;10.880;2023-05-09T03:44:03;98943;;;13.31;65.67
4326;BME280;58429;49.826;10.880;2023-05-09T03:45:03;98945;;;13.3;65.8
4326;BME280;58429;49.826;10.880;2023-05-09T03:46:03;98946;;;13.28;65.71
4326;BME280;58429;49.826;10.880;2023-05-09T03:47:03;98942;;;13.3;65.86
4326;BME280;58429;49.826;10.880;2023-05-09T03:48:03;98945;;;13.28;65.9
4326;BME280;58429;49.826;10.880;2023-05-09T03:49:03;98948;;;13.28;65.65
4326;BME280;58429;49.826;10.880;2023-05-09T03:50:03;98944;;;13.29;65.49
4326;BME280;58429;49.826;10.880;2023-05-09T03:51:03;98953;;;13.28;65.52
4326;BME280;58429;49.826;10.880;2023-05-09T03:52:03;98945;;;13.28;65.46
4326;BME280;58429;49.826;10.880;2023-05-09T03:53:03;98949;;;13.29;65.35
4326;BME280;58429;49.826;10.880;2023-05-09T03:54:03;98949;;;13.29;65.3
4326;BME280;58429;49.826;10.880;2023-05-09T03:55:03;98948;;;13.26;65.37
4326;BME280;58429;49.826;10.880;2023-05-09T03:56:03;98949;;;13.26;65.34
4326;BME280;58429;49.826;10.880;2023-05-09T03:57:03;98955;;;13.27;65.25
4326;BME280;58429;49.826;10.880;2023-05-09T03:58:03;98952;;;13.3;65.27
4326;BME280;58429;49.826;10.880;2023-05-09T03:59:03;98948;;;13.26;65.19
4326;BME280;58429;49.826;10.880;2023-05-09T04:00:03;98949;;;13.28;65.11
4326;BME280;58429;49.826;10.880;2023-05-09T04:01:03;98951;;;13.24;65.09
4326;BME280;58429;49.826;10.880;2023-05-09T04:02:03;98949;;;13.24;65.23
4326;BME280;58429;49.826;10.880;2023-05-09T04:03:03;98956;;;13.26;65.34
4326;BME280;58429;49.826;10.880;2023-05-09T04:04:03;98956;;;13.23;65.24
4326;BME280;58429;49.826;10.880;2023-05-09T04:05:03;98955;;;13.25;65.17
4326;BME280;58429;49.826;10.880;2023-05-09T04:06:03;98957;;;13.23;65.09
4326;BME280;58429;49.826;10.880;2023-05-09T04:07:03;98957;;;13.25;65.1
4326;BME280;58429;49.826;10.880;2023-05-09T04:08:03;98961;;;13.22;64.99
4326;BME280;58429;49.826;10.880;2023-05-09T04:09:03;98966;;;13.2;64.96
4326;BME280;58429;49.826;10.880;2023-05-09T04:10:03;98965;;;13.22;64.88
4326;BME280;58429;49.826;10.880;2023-05-09T04:11:03;98963;;;13.24;64.85
4326;BME280;58429;49.826;10.880;2023-05-09T04:12:03;98962;;;13.26;64.81
4326;BME280;58429;49.826;10.880;2023-05-09T04:13:03;98965;;;13.25;64.78
4326;BME280;58429;49.826;10.880;2023-05-09T04:14:03;98959;;;13.3;64.75
4326;BME280;58429;49.826;10.880;2023-05-09T04:15:03;98962;;;13.29;64.73
4326;BME280;58429;49.826;10.880;2023-05-09T04:16:03;98965;;;13.26;64.8
4326;BME280;58429;49.826;10.880;2023-05-09T04:17:03;98968;;;13.26;64.87
4326;BME280;58429;49.826;10.880;2023-05-09T04:18:03;98972;;;13.26;64.87
4326;BME280;58429;49.826;10.880;2023-05-09T04:19:03;98968;;;13.21;64.9
4326;BME280;58429;49.826;10.880;2023-05-09T04:20:03;98966;;;13.21;64.94
4326;BME280;58429;49.826;10.880;2023-05-09T04:21:03;98966;;;13.24;64.9
4326;BME280;58429;49.826;10.880;2023-05-09T04:22:03;98964;;;13.23;64.87
4326;BME280;58429;49.826;10.880;2023-05-09T04:23:03;98962;;;13.24;64.91
4326;BME280;58429;49.826;10.880;2023-05-09T04:24:03;98966;;;13.26;64.95
4326;BME280;58429;49.826;10.880;2023-05-09T04:25:04;98960;;;13.23;65.05
4326;BME280;58429;49.826;10.880;2023-05-09T04:26:03;98962;;;13.2;65.19
4326;BME280;58429;49.826;10.880;2023-05-09T04:27:03;98964;;;13.19;65.22
4326;BME280;58429;49.826;10.880;2023-05-09T04:28:03;98966;;;13.2;65.28
4326;BME280;58429;49.826;10.880;2023-05-09T04:29:03;98959;;;13.16;65.3
4326;BME280;58429;49.826;10.880;2023-05-09T04:30:03;98958;;;13.14;65.35
4326;BME280;58429;49.826;10.880;2023-05-09T04:31:03;98962;;;13.16;65.45
4326;BME280;58429;49.826;10.880;2023-05-09T04:32:03;98960;;;13.18;65.58
4326;BME280;58429;49.826;10.880;2023-05-09T04:33:03;98959;;;13.16;65.54
4326;BME280;58429;49.826;10.880;2023-05-09T04:34:03;98959;;;13.17;65.82
4326;BME280;58429;49.826;10.880;2023-05-09T04:35:03;98960;;;13.11;65.72
4326;BME280;58429;49.826;10.880;2023-05-09T04:36:08;98962;;;13.16;65.78
4326;BME280;58429;49.826;10.880;2023-05-09T04:37:03;98958;;;13.16;65.96
4326;BME280;58429;49.826;10.880;2023-05-09T04:38:03;98965;;;13.16;65.93
4326;BME280;58429;49.826;10.880;2023-05-09T04:39:03;98960;;;13.13;66
4326;BME280;58429;49.826;10.880;2023-05-09T04:40:03;98965;;;13.19;66.05
4326;BME280;58429;49.826;10.880;2023-05-09T04:41:03;98962;;;13.22;65.98
4326;BME280;58429;49.826;10.880;2023-05-09T04:42:03;98968;;;13.23;65.93
4326;BME280;58429;49.826;10.880;2023-05-09T04:43:03;98964;;;13.26;65.9
4326;BME280;58429;49.826;10.880;2023-05-09T04:44:03;98973;;;13.22;65.88
4326;BME280;58429;49.826;10.880;2023-05-09T04:45:03;98967;;;13.25;65.92
4326;BME280;58429;49.826;10.880;2023-05-09T04:46:03;98970;;;13.28;66.04
4326;BME280;58429;49.826;10.880;2023-05-09T04:47:03;98972;;;13.3;65.99
4326;BME280;58429;49.826;10.880;2023-05-09T04:48:03;98971;;;13.31;66.04
4326;BME280;58429;49.826;10.880;2023-05-09T04:49:03;98959;;;13.33;65.96
4326;BME280;58429;49.826;10.880;2023-05-09T04:50:03;98966;;;13.34;65.94
4326;BME280;58429;49.826;10.880;2023-05-09T04:51:03;98966;;;13.35;65.9
4326;BME280;58429;49.826;10.880;2023-05-09T04:52:03;98966;;;13.36;65.84
4326;BME280;58429;49.826;10.880;2023-05-09T04:53:03;98964;;;13.38;65.85
4326;BME280;58429;49.826;10.880;2023-05-09T04:54:03;98964;;;13.39;65.79
4326;BME280;58429;49.826;10.880;2023-05-09T04:55:04;98966;;;13.4;65.66
4326;BME280;58429;49.826;10.880;2023-05-09T04:56:03;98964;;;13.44;65.77
4326;BME280;58429;49.826;10.880;2023-05-09T04:57:03;98962;;;13.49;65.77
4326;BME280;58429;49.826;10.880;2023-05-09T04:58:03;98964;;;13.49;65.76
4326;BME280;58429;49.826;10.880;2023-05-09T04:59:03;98965;;;13.52;65.76
4326;BME280;58429;49.826;10.880;2023-05-09T05:00:03;98959;;;13.55;65.65
4326;BME280;58429;49.826;10.880;2023-05-09T05:01:03;98958;;;13.59;65.55
4326;BME280;58429;49.826;10.880;2023-05-09T05:02:03;98957;;;13.62;65.57
4326;BME280;58429;49.826;10.880;2023-05-09T05:03:03;98958;;;13.63;65.55
4326;BME280;58429;49.826;10.880;2023-05-09T05:04:03;98959;;;13.65;65.55
4326;BME280;58429;49.826;10.880;2023-05-09T05:05:03;98960;;;13.68;65.4
4326;BME280;58429;49.826;10.880;2023-05-09T05:06:03;98962;;;13.73;65.23
4326;BME280;58429;49.826;10.880;2023-05-09T05:07:03;98960;;;13.72;64.51
4326;BME280;58429;49.826;10.880;2023-05-09T05:08:03;98955;;;13.75;64.35
4326;BME280;58429;49.826;10.880;2023-05-09T05:09:03;98957;;;13.77;64.74
4326;BME280;58429;49.826;10.880;2023-05-09T05:10:03;98948;;;13.77;64.41
4326;BME280;58429;49.826;10.880;2023-05-09T05:11:03;98956;;;13.77;64.38
4326;BME280;58429;49.826;10.880;2023-05-09T05:12:03;98952;;;13.81;64.17
4326;BME280;58429;49.826;10.880;2023-05-09T05:13:03;98958;;;13.82;64.25
4326;BME280;58429;49.826;10.880;2023-05-09T05:14:03;98953;;;13.85;64.15
4326;BME280;58429;49.826;10.880;2023-05-09T05:15:03;98951;;;13.86;64.09
4326;BME280;58429;49.826;10.880;2023-05-09T05:16:03;98956;;;13.84;64.05
4326;BME280;58429;49.826;10.880;2023-05-09T05:17:03;98948;;;13.87;64.01
4326;BME280;58429;49.826;10.880;2023-05-09T05:18:03;98953;;;13.9;63.92
4326;BME280;58429;49.826;10.880;2023-05-09T05:19:03;98944;;;13.91;63.65
4326;BME280;58429;49.826;10.880;2023-05-09T05:20:04;98949;;;13.92;63.34
4326;BME280;58429;49.826;10.880;2023-05-09T05:21:03;98952;;;13.95;63.14
4326;BME280;58429;49.826;10.880;2023-05-09T05:22:03;98950;;;13.94;63.21
4326;BME280;58429;49.826;10.880;2023-05-09T05:23:03;98951;;;13.96;63.17
4326;BME280;58429;49.826;10.880;2023-05-09T05:24:03;98950;;;13.98;63.2
4326;BME280;58429;49.826;10.880;2023-05-09T05:25:03;98947;;;14.03;63.22
4326;BME280;58429;49.826;10.880;2023-05-09T05:26:03;98952;;;14.05;63.05
4326;BME280;58429;49.826;10.880;2023-05-09T05:27:03;98945;;;14.06;63.08
4326;BME280;58429;49.826;10.880;2023-05-09T05:28:03;98952;;;14.08;63.13
4326;BME280;58429;49.826;10.880;2023-05-09T05:29:03;98947;;;14.13;62.95
4326;BME280;58429;49.826;10.880;2023-05-09T05:30:04;98945;;;14.16;63.19
4326;BME280;58429;49.826;10.880;2023-05-09T05:31:03;98946;;;14.2;63.08
4326;BME280;58429;49.826;10.880;2023-05-09T05:32:03;98954;;;14.18;62.87